sensor_id;sensor_type;location;lat;lon;timestamp;P1;durP1;ratioP1;P2;durP2;ratioP2
77191;SDS011;66172;48.526;8.078;2023-03-01T00:00:37;16.60;;;8.43;;
77191;SDS011;66172;48.526;8.078;2023-03-01T00:03:03;17.45;;;8.10;;
77191;SDS011;66172;48.526;8.078;2023-03-01T00:05:29;20.45;;;8.98;;
77191;SDS011;66172;48.526;8.078;2023-03-01T00:07:55;19.50;;;8.87;;
77191;SDS011;66172;48.526;8.078;2023-03-01T00:10:21;17.15;;;7.35;;
77191;SDS011;66172;48.526;8.078;2023-03-01T00:12:47;18.33;;;7.47;;
77191;SDS011;66172;48.526;8.078;2023-03-01T00:15:13;19.33;;;7.20;;
77191;SDS011;66172;48.526;8.078;2023-03-01T00:17:39;19.33;;;7.00;;
77191;SDS011;66172;48.526;8.078;2023-03-01T00:20:05;17.05;;;7.25;;
77191;SDS011;66172;48.526;8.078;2023-03-01T00:22:36;18.27;;;7.35;;
77191;SDS011;66172;48.526;8.078;2023-03-01T00:25:02;18.23;;;7.73;;
77191;SDS011;66172;48.526;8.078;2023-03-01T00:27:29;16.75;;;7.35;;
77191;SDS011;66172;48.526;8.078;2023-03-01T00:29:55;16.08;;;7.32;;
77191;SDS011;66172;48.526;8.078;2023-03-01T00:32:21;16.95;;;7.28;;
77191;SDS011;66172;48.526;8.078;2023-03-01T00:34:46;17.00;;;7.30;;
77191;SDS011;66172;48.526;8.078;2023-03-01T00:37:20;17.98;;;7.60;;
77191;SDS011;66172;48.526;8.078;2023-03-01T00:39:47;16.02;;;6.55;;
77191;SDS011;66172;48.526;8.078;2023-03-01T00:42:13;17.50;;;6.75;;
77191;SDS011;66172;48.526;8.078;2023-03-01T00:44:39;19.30;;;8.13;;
77191;SDS011;66172;48.526;8.078;2023-03-01T00:47:05;21.53;;;7.90;;
77191;SDS011;66172;48.526;8.078;2023-03-01T00:49:31;16.75;;;6.80;;
77191;SDS011;66172;48.526;8.078;2023-03-01T00:51:57;17.73;;;7.18;;
77191;SDS011;66172;48.526;8.078;2023-03-01T00:54:22;16.87;;;7.17;;
77191;SDS011;66172;48.526;8.078;2023-03-01T00:56:48;17.50;;;7.27;;
77191;SDS011;66172;48.526;8.078;2023-03-01T00:59:14;19.95;;;7.63;;
77191;SDS011;66172;48.526;8.078;2023-03-01T01:01:40;18.13;;;8.05;;
77191;SDS011;66172;48.526;8.078;2023-03-01T01:04:07;18.33;;;7.00;;
77191;SDS011;66172;48.526;8.078;2023-03-01T01:06:37;18.45;;;7.45;;
77191;SDS011;66172;48.526;8.078;2023-03-01T01:09:06;16.35;;;7.35;;
77191;SDS011;66172;48.526;8.078;2023-03-01T01:11:32;19.15;;;7.45;;
77191;SDS011;66172;48.526;8.078;2023-03-01T01:14:00;20.13;;;8.60;;
77191;SDS011;66172;48.526;8.078;2023-03-01T01:16:27;18.10;;;7.77;;
77191;SDS011;66172;48.526;8.078;2023-03-01T01:18:53;18.00;;;7.07;;
77191;SDS011;66172;48.526;8.078;2023-03-01T01:21:21;16.85;;;7.10;;
77191;SDS011;66172;48.526;8.078;2023-03-01T01:23:48;16.30;;;7.03;;
77191;SDS011;66172;48.526;8.078;2023-03-01T01:26:18;16.98;;;7.30;;
77191;SDS011;66172;48.526;8.078;2023-03-01T01:28:46;16.20;;;6.67;;
77191;SDS011;66172;48.526;8.078;2023-03-01T01:31:12;19.08;;;7.68;;
77191;SDS011;66172;48.526;8.078;2023-03-01T01:33:38;18.88;;;6.93;;
77191;SDS011;66172;48.526;8.078;2023-03-01T01:36:04;18.70;;;7.55;;
77191;SDS011;66172;48.526;8.078;2023-03-01T01:38:31;16.27;;;7.80;;
77191;SDS011;66172;48.526;8.078;2023-03-01T01:40:57;16.43;;;7.40;;
77191;SDS011;66172;48.526;8.078;2023-03-01T01:43:25;16.85;;;7.43;;
77191;SDS011;66172;48.526;8.078;2023-03-01T01:46:06;16.83;;;7.07;;
77191;SDS011;66172;48.526;8.078;2023-03-01T01:48:48;18.17;;;6.93;;
77191;SDS011;66172;48.526;8.078;2023-03-01T01:51:19;19.80;;;7.90;;
77191;SDS011;66172;48.526;8.078;2023-03-01T01:53:52;21.48;;;7.85;;
77191;SDS011;66172;48.526;8.078;2023-03-01T01:56:22;17.58;;;7.55;;
77191;SDS011;66172;48.526;8.078;2023-03-01T01:58:51;19.30;;;7.22;;
77191;SDS011;66172;48.526;8.078;2023-03-01T02:01:17;17.15;;;6.97;;
77191;SDS011;66172;48.526;8.078;2023-03-01T02:03:44;17.17;;;7.00;;
77191;SDS011;66172;48.526;8.078;2023-03-01T02:06:17;19.23;;;7.97;;
77191;SDS011;66172;48.526;8.078;2023-03-01T02:08:48;19.45;;;7.10;;
77191;SDS011;66172;48.526;8.078;2023-03-01T02:11:18;16.98;;;6.70;;
77191;SDS011;66172;48.526;8.078;2023-03-01T02:13:44;15.45;;;6.32;;
77191;SDS011;66172;48.526;8.078;2023-03-01T02:16:12;19.07;;;7.30;;
77191;SDS011;66172;48.526;8.078;2023-03-01T02:18:40;18.77;;;7.07;;
77191;SDS011;66172;48.526;8.078;2023-03-01T02:21:17;17.55;;;7.25;;
77191;SDS011;66172;48.526;8.078;2023-03-01T02:23:45;16.30;;;6.85;;
77191;SDS011;66172;48.526;8.078;2023-03-01T02:26:33;17.30;;;7.07;;
77191;SDS011;66172;48.526;8.078;2023-03-01T02:29:02;18.07;;;6.80;;
77191;SDS011;66172;48.526;8.078;2023-03-01T02:31:28;16.75;;;6.93;;
77191;SDS011;66172;48.526;8.078;2023-03-01T02:34:10;19.48;;;7.30;;
77191;SDS011;66172;48.526;8.078;2023-03-01T02:36:40;18.15;;;7.43;;
77191;SDS011;66172;48.526;8.078;2023-03-01T02:39:11;19.10;;;6.65;;
77191;SDS011;66172;48.526;8.078;2023-03-01T02:41:45;19.60;;;7.73;;
77191;SDS011;66172;48.526;8.078;2023-03-01T02:44:13;19.48;;;7.38;;
77191;SDS011;66172;48.526;8.078;2023-03-01T02:46:43;17.23;;;6.63;;
77191;SDS011;66172;48.526;8.078;2023-03-01T02:55:09;18.80;;;6.70;;
77191;SDS011;66172;48.526;8.078;2023-03-01T02:57:39;21.30;;;6.93;;
77191;SDS011;66172;48.526;8.078;2023-03-01T03:00:09;19.95;;;7.78;;
77191;SDS011;66172;48.526;8.078;2023-03-01T03:02:45;20.23;;;8.38;;
77191;SDS011;66172;48.526;8.078;2023-03-01T03:05:13;17.25;;;7.13;;
77191;SDS011;66172;48.526;8.078;2023-03-01T03:07:42;18.77;;;7.60;;
77191;SDS011;66172;48.526;8.078;2023-03-01T03:10:11;16.65;;;6.97;;
77191;SDS011;66172;48.526;8.078;2023-03-01T03:12:40;15.75;;;6.68;;
77191;SDS011;66172;48.526;8.078;2023-03-01T03:15:07;18.38;;;7.00;;
77191;SDS011;66172;48.526;8.078;2023-03-01T03:17:38;18.17;;;7.13;;
77191;SDS011;66172;48.526;8.078;2023-03-01T03:20:06;18.77;;;7.07;;
77191;SDS011;66172;48.526;8.078;2023-03-01T03:22:37;16.88;;;6.63;;
77191;SDS011;66172;48.526;8.078;2023-03-01T03:25:05;18.23;;;7.57;;
77191;SDS011;66172;48.526;8.078;2023-03-01T03:27:39;16.35;;;6.93;;
77191;SDS011;66172;48.526;8.078;2023-03-01T03:30:07;18.95;;;8.15;;
77191;SDS011;66172;48.526;8.078;2023-03-01T03:32:35;20.47;;;8.23;;
77191;SDS011;66172;48.526;8.078;2023-03-01T03:35:02;20.58;;;7.30;;
77191;SDS011;66172;48.526;8.078;2023-03-01T03:37:36;20.45;;;8.43;;
77191;SDS011;66172;48.526;8.078;2023-03-01T03:40:20;16.63;;;6.88;;
77191;SDS011;66172;48.526;8.078;2023-03-01T03:42:46;19.08;;;7.55;;
77191;SDS011;66172;48.526;8.078;2023-03-01T03:45:13;18.37;;;8.07;;
77191;SDS011;66172;48.526;8.078;2023-03-01T03:47:40;21.17;;;7.75;;
77191;SDS011;66172;48.526;8.078;2023-03-01T03:50:07;21.63;;;7.72;;
77191;SDS011;66172;48.526;8.078;2023-03-01T03:52:34;20.27;;;7.38;;
77191;SDS011;66172;48.526;8.078;2023-03-01T03:55:00;17.17;;;7.20;;
77191;SDS011;66172;48.526;8.078;2023-03-01T03:57:26;21.45;;;7.97;;
77191;SDS011;66172;48.526;8.078;2023-03-01T03:59:52;24.30;;;8.30;;
77191;SDS011;66172;48.526;8.078;2023-03-01T04:02:18;22.58;;;8.70;;
77191;SDS011;66172;48.526;8.078;2023-03-01T04:04:48;19.23;;;7.83;;
77191;SDS011;66172;48.526;8.078;2023-03-01T04:07:17;19.45;;;8.02;;
77191;SDS011;66172;48.526;8.078;2023-03-01T04:09:43;20.45;;;8.05;;
77191;SDS011;66172;48.526;8.078;2023-03-01T04:12:09;16.88;;;7.22;;
77191;SDS011;66172;48.526;8.078;2023-03-01T04:14:35;18.52;;;7.97;;
77191;SDS011;66172;48.526;8.078;2023-03-01T04:17:01;19.07;;;7.13;;
77191;SDS011;66172;48.526;8.078;2023-03-01T04:19:31;22.90;;;8.00;;
77191;SDS011;66172;48.526;8.078;2023-03-01T04:22:02;20.52;;;8.18;;
77191;SDS011;66172;48.526;8.078;2023-03-01T04:24:35;19.15;;;8.05;;
77191;SDS011;66172;48.526;8.078;2023-03-01T04:27:01;20.85;;;8.02;;
77191;SDS011;66172;48.526;8.078;2023-03-01T04:29:27;19.73;;;7.13;;
77191;SDS011;66172;48.526;8.078;2023-03-01T04:31:53;17.98;;;7.38;;
77191;SDS011;66172;48.526;8.078;2023-03-01T04:34:19;19.58;;;8.27;;
77191;SDS011;66172;48.526;8.078;2023-03-01T04:36:45;20.77;;;7.88;;
77191;SDS011;66172;48.526;8.078;2023-03-01T04:39:11;21.20;;;8.30;;
77191;SDS011;66172;48.526;8.078;2023-03-01T04:41:40;22.33;;;10.10;;
77191;SDS011;66172;48.526;8.078;2023-03-01T04:44:06;22.17;;;9.55;;
77191;SDS011;66172;48.526;8.078;2023-03-01T04:46:32;25.35;;;8.80;;
77191;SDS011;66172;48.526;8.078;2023-03-01T04:48:58;21.47;;;8.97;;
77191;SDS011;66172;48.526;8.078;2023-03-01T04:51:24;21.83;;;8.82;;
77191;SDS011;66172;48.526;8.078;2023-03-01T04:53:50;20.60;;;8.50;;
77191;SDS011;66172;48.526;8.078;2023-03-01T04:56:16;19.73;;;8.25;;
77191;SDS011;66172;48.526;8.078;2023-03-01T04:58:43;19.23;;;7.70;;
77191;SDS011;66172;48.526;8.078;2023-03-01T05:01:19;22.50;;;8.40;;
77191;SDS011;66172;48.526;8.078;2023-03-01T05:03:46;20.70;;;8.98;;
77191;SDS011;66172;48.526;8.078;2023-03-01T05:06:14;20.98;;;8.57;;
77191;SDS011;66172;48.526;8.078;2023-03-01T05:08:41;21.33;;;8.73;;
77191;SDS011;66172;48.526;8.078;2023-03-01T05:11:08;19.67;;;8.20;;
77191;SDS011;66172;48.526;8.078;2023-03-01T05:13:35;19.50;;;8.32;;
77191;SDS011;66172;48.526;8.078;2023-03-01T05:16:02;20.92;;;8.13;;
77191;SDS011;66172;48.526;8.078;2023-03-01T05:18:30;24.45;;;9.00;;
77191;SDS011;66172;48.526;8.078;2023-03-01T05:21:07;22.65;;;8.65;;
77191;SDS011;66172;48.526;8.078;2023-03-01T05:23:35;23.03;;;8.80;;
77191;SDS011;66172;48.526;8.078;2023-03-01T05:26:02;22.30;;;8.60;;
77191;SDS011;66172;48.526;8.078;2023-03-01T05:28:29;23.90;;;9.40;;
77191;SDS011;66172;48.526;8.078;2023-03-01T05:30:55;19.38;;;8.20;;
77191;SDS011;66172;48.526;8.078;2023-03-01T05:33:22;23.60;;;9.20;;
77191;SDS011;66172;48.526;8.078;2023-03-01T05:35:50;23.60;;;9.57;;
77191;SDS011;66172;48.526;8.078;2023-03-01T05:38:17;22.42;;;9.57;;
77191;SDS011;66172;48.526;8.078;2023-03-01T05:40:44;24.15;;;10.25;;
77191;SDS011;66172;48.526;8.078;2023-03-01T05:43:12;25.00;;;8.77;;
77191;SDS011;66172;48.526;8.078;2023-03-01T05:45:40;19.95;;;8.52;;
77191;SDS011;66172;48.526;8.078;2023-03-01T05:48:07;29.63;;;12.10;;
77191;SDS011;66172;48.526;8.078;2023-03-01T05:50:35;22.25;;;9.18;;
77191;SDS011;66172;48.526;8.078;2023-03-01T05:53:07;23.48;;;9.55;;
77191;SDS011;66172;48.526;8.078;2023-03-01T05:55:36;22.98;;;10.27;;
77191;SDS011;66172;48.526;8.078;2023-03-01T05:58:04;25.63;;;11.82;;
77191;SDS011;66172;48.526;8.078;2023-03-01T06:00:32;31.27;;;12.83;;
77191;SDS011;66172;48.526;8.078;2023-03-01T06:02:59;30.90;;;12.57;;
77191;SDS011;66172;48.526;8.078;2023-03-01T06:05:25;29.70;;;11.80;;
77191;SDS011;66172;48.526;8.078;2023-03-01T06:07:52;30.08;;;11.55;;
77191;SDS011;66172;48.526;8.078;2023-03-01T06:10:19;24.95;;;10.10;;
77191;SDS011;66172;48.526;8.078;2023-03-01T06:12:46;22.87;;;10.07;;
77191;SDS011;66172;48.526;8.078;2023-03-01T06:15:13;25.92;;;11.05;;
77191;SDS011;66172;48.526;8.078;2023-03-01T06:17:41;28.90;;;11.20;;
77191;SDS011;66172;48.526;8.078;2023-03-01T06:20:09;23.60;;;10.63;;
77191;SDS011;66172;48.526;8.078;2023-03-01T06:22:43;25.75;;;10.40;;
77191;SDS011;66172;48.526;8.078;2023-03-01T06:25:09;26.80;;;11.10;;
77191;SDS011;66172;48.526;8.078;2023-03-01T06:27:38;25.13;;;10.40;;
77191;SDS011;66172;48.526;8.078;2023-03-01T06:30:04;25.08;;;10.13;;
77191;SDS011;66172;48.526;8.078;2023-03-01T06:32:30;24.33;;;10.05;;
77191;SDS011;66172;48.526;8.078;2023-03-01T06:34:57;26.90;;;10.48;;
77191;SDS011;66172;48.526;8.078;2023-03-01T06:37:24;25.07;;;9.80;;
77191;SDS011;66172;48.526;8.078;2023-03-01T06:39:50;26.27;;;10.40;;
77191;SDS011;66172;48.526;8.078;2023-03-01T06:42:16;24.95;;;10.43;;
77191;SDS011;66172;48.526;8.078;2023-03-01T06:44:43;26.02;;;10.95;;
77191;SDS011;66172;48.526;8.078;2023-03-01T06:47:10;24.73;;;10.83;;
77191;SDS011;66172;48.526;8.078;2023-03-01T06:49:35;25.30;;;10.85;;
77191;SDS011;66172;48.526;8.078;2023-03-01T06:52:01;30.50;;;11.95;;
77191;SDS011;66172;48.526;8.078;2023-03-01T06:54:27;30.17;;;11.93;;
77191;SDS011;66172;48.526;8.078;2023-03-01T06:56:54;30.93;;;12.20;;
77191;SDS011;66172;48.526;8.078;2023-03-01T06:59:20;29.17;;;10.73;;
77191;SDS011;66172;48.526;8.078;2023-03-01T07:01:46;29.05;;;11.82;;
77191;SDS011;66172;48.526;8.078;2023-03-01T07:04:12;26.80;;;11.43;;
77191;SDS011;66172;48.526;8.078;2023-03-01T07:06:38;25.07;;;11.37;;
77191;SDS011;66172;48.526;8.078;2023-03-01T07:09:04;30.33;;;12.68;;
77191;SDS011;66172;48.526;8.078;2023-03-01T07:11:30;28.40;;;12.68;;
77191;SDS011;66172;48.526;8.078;2023-03-01T07:13:56;28.73;;;12.38;;
77191;SDS011;66172;48.526;8.078;2023-03-01T07:16:22;27.83;;;12.43;;
77191;SDS011;66172;48.526;8.078;2023-03-01T07:18:48;26.77;;;10.85;;
77191;SDS011;66172;48.526;8.078;2023-03-01T07:21:14;23.15;;;10.02;;
77191;SDS011;66172;48.526;8.078;2023-03-01T07:23:40;27.30;;;11.05;;
77191;SDS011;66172;48.526;8.078;2023-03-01T07:26:06;27.93;;;10.90;;
77191;SDS011;66172;48.526;8.078;2023-03-01T07:28:32;25.75;;;11.82;;
77191;SDS011;66172;48.526;8.078;2023-03-01T07:31:04;27.25;;;11.82;;
77191;SDS011;66172;48.526;8.078;2023-03-01T07:33:31;26.42;;;11.82;;
77191;SDS011;66172;48.526;8.078;2023-03-01T07:35:57;23.45;;;11.35;;
77191;SDS011;66172;48.526;8.078;2023-03-01T07:38:27;27.83;;;11.50;;
77191;SDS011;66172;48.526;8.078;2023-03-01T07:40:53;21.85;;;10.27;;
77191;SDS011;66172;48.526;8.078;2023-03-01T07:43:22;23.38;;;10.85;;
77191;SDS011;66172;48.526;8.078;2023-03-01T07:45:48;25.95;;;11.88;;
77191;SDS011;66172;48.526;8.078;2023-03-01T07:48:14;22.70;;;11.80;;
77191;SDS011;66172;48.526;8.078;2023-03-01T07:50:40;25.42;;;11.93;;
77191;SDS011;66172;48.526;8.078;2023-03-01T07:53:06;22.63;;;10.80;;
77191;SDS011;66172;48.526;8.078;2023-03-01T07:55:32;22.13;;;10.93;;
77191;SDS011;66172;48.526;8.078;2023-03-01T07:57:58;24.50;;;12.05;;
77191;SDS011;66172;48.526;8.078;2023-03-01T08:00:24;21.90;;;11.75;;
77191;SDS011;66172;48.526;8.078;2023-03-01T08:02:49;22.40;;;11.80;;
77191;SDS011;66172;48.526;8.078;2023-03-01T08:05:15;21.30;;;11.67;;
77191;SDS011;66172;48.526;8.078;2023-03-01T08:07:41;21.80;;;11.02;;
77191;SDS011;66172;48.526;8.078;2023-03-01T08:10:07;27.42;;;12.13;;
77191;SDS011;66172;48.526;8.078;2023-03-01T08:12:34;24.38;;;11.75;;
77191;SDS011;66172;48.526;8.078;2023-03-01T08:15:00;23.83;;;11.17;;
77191;SDS011;66172;48.526;8.078;2023-03-01T08:17:26;21.48;;;11.68;;
77191;SDS011;66172;48.526;8.078;2023-03-01T08:19:52;21.15;;;11.32;;
77191;SDS011;66172;48.526;8.078;2023-03-01T08:22:17;28.70;;;12.33;;
77191;SDS011;66172;48.526;8.078;2023-03-01T08:24:43;26.35;;;12.43;;
77191;SDS011;66172;48.526;8.078;2023-03-01T08:27:09;24.60;;;11.90;;
77191;SDS011;66172;48.526;8.078;2023-03-01T08:29:35;24.92;;;12.25;;
77191;SDS011;66172;48.526;8.078;2023-03-01T08:32:01;26.53;;;12.87;;
77191;SDS011;66172;48.526;8.078;2023-03-01T08:34:27;26.45;;;12.32;;
77191;SDS011;66172;48.526;8.078;2023-03-01T08:36:53;27.05;;;11.63;;
77191;SDS011;66172;48.526;8.078;2023-03-01T08:39:19;26.33;;;11.53;;
77191;SDS011;66172;48.526;8.078;2023-03-01T08:41:46;29.00;;;12.10;;
77191;SDS011;66172;48.526;8.078;2023-03-01T08:44:12;28.38;;;12.80;;
77191;SDS011;66172;48.526;8.078;2023-03-01T08:46:42;25.98;;;12.68;;
77191;SDS011;66172;48.526;8.078;2023-03-01T08:49:10;26.85;;;11.93;;
77191;SDS011;66172;48.526;8.078;2023-03-01T08:51:37;26.50;;;11.83;;
77191;SDS011;66172;48.526;8.078;2023-03-01T08:54:04;27.42;;;11.77;;
77191;SDS011;66172;48.526;8.078;2023-03-01T08:56:30;24.98;;;12.02;;
77191;SDS011;66172;48.526;8.078;2023-03-01T08:58:57;23.85;;;11.82;;
77191;SDS011;66172;48.526;8.078;2023-03-01T09:01:23;25.20;;;12.15;;
77191;SDS011;66172;48.526;8.078;2023-03-01T09:03:49;24.27;;;11.90;;
77191;SDS011;66172;48.526;8.078;2023-03-01T09:06:14;26.25;;;11.93;;
77191;SDS011;66172;48.526;8.078;2023-03-01T09:08:42;26.00;;;12.63;;
77191;SDS011;66172;48.526;8.078;2023-03-01T09:11:10;26.77;;;12.40;;
77191;SDS011;66172;48.526;8.078;2023-03-01T09:13:38;27.77;;;12.63;;
77191;SDS011;66172;48.526;8.078;2023-03-01T09:16:05;25.25;;;12.10;;
77191;SDS011;66172;48.526;8.078;2023-03-01T09:18:33;24.65;;;11.98;;
77191;SDS011;66172;48.526;8.078;2023-03-01T09:21:09;24.27;;;12.05;;
77191;SDS011;66172;48.526;8.078;2023-03-01T09:23:39;24.48;;;11.55;;
77191;SDS011;66172;48.526;8.078;2023-03-01T09:26:09;25.43;;;11.50;;
77191;SDS011;66172;48.526;8.078;2023-03-01T09:28:42;23.88;;;11.82;;
77191;SDS011;66172;48.526;8.078;2023-03-01T09:31:08;23.58;;;11.77;;
77191;SDS011;66172;48.526;8.078;2023-03-01T09:33:34;23.50;;;11.60;;
77191;SDS011;66172;48.526;8.078;2023-03-01T09:36:01;22.70;;;12.40;;
77191;SDS011;66172;48.526;8.078;2023-03-01T09:38:29;23.65;;;12.00;;
77191;SDS011;66172;48.526;8.078;2023-03-01T09:40:55;26.20;;;12.68;;
77191;SDS011;66172;48.526;8.078;2023-03-01T09:46:08;22.33;;;12.60;;
77191;SDS011;66172;48.526;8.078;2023-03-01T09:48:41;23.00;;;12.10;;
77191;SDS011;66172;48.526;8.078;2023-03-01T09:51:16;22.85;;;12.77;;
77191;SDS011;66172;48.526;8.078;2023-03-01T09:53:45;23.25;;;12.27;;
77191;SDS011;66172;48.526;8.078;2023-03-01T09:56:16;21.30;;;11.75;;
77191;SDS011;66172;48.526;8.078;2023-03-01T09:58:52;22.02;;;12.73;;
77191;SDS011;66172;48.526;8.078;2023-03-01T10:01:34;21.77;;;12.40;;
77191;SDS011;66172;48.526;8.078;2023-03-01T10:09:36;23.90;;;13.25;;
77191;SDS011;66172;48.526;8.078;2023-03-01T10:12:08;21.90;;;12.75;;
77191;SDS011;66172;48.526;8.078;2023-03-01T10:14:56;21.23;;;12.57;;
77191;SDS011;66172;48.526;8.078;2023-03-01T10:20:11;25.98;;;13.90;;
77191;SDS011;66172;48.526;8.078;2023-03-01T10:22:41;18.85;;;12.35;;
77191;SDS011;66172;48.526;8.078;2023-03-01T10:25:12;22.38;;;12.93;;
77191;SDS011;66172;48.526;8.078;2023-03-01T10:28:02;20.40;;;12.90;;
77191;SDS011;66172;48.526;8.078;2023-03-01T10:30:38;20.95;;;12.82;;
77191;SDS011;66172;48.526;8.078;2023-03-01T10:33:40;20.73;;;12.63;;
77191;SDS011;66172;48.526;8.078;2023-03-01T10:36:02;21.73;;;12.75;;
77191;SDS011;66172;48.526;8.078;2023-03-01T10:38:30;20.95;;;13.23;;
77191;SDS011;66172;48.526;8.078;2023-03-01T10:41:12;21.63;;;13.07;;
77191;SDS011;66172;48.526;8.078;2023-03-01T10:43:48;21.02;;;12.57;;
77191;SDS011;66172;48.526;8.078;2023-03-01T10:49:05;22.05;;;13.43;;
77191;SDS011;66172;48.526;8.078;2023-03-01T10:51:37;20.80;;;12.85;;
77191;SDS011;66172;48.526;8.078;2023-03-01T10:54:05;21.07;;;13.03;;
77191;SDS011;66172;48.526;8.078;2023-03-01T10:56:48;20.83;;;12.48;;
77191;SDS011;66172;48.526;8.078;2023-03-01T10:59:25;22.40;;;13.25;;
77191;SDS011;66172;48.526;8.078;2023-03-01T11:04:42;20.90;;;12.98;;
77191;SDS011;66172;48.526;8.078;2023-03-01T11:07:22;21.33;;;13.40;;
77191;SDS011;66172;48.526;8.078;2023-03-01T11:09:47;21.85;;;13.13;;
77191;SDS011;66172;48.526;8.078;2023-03-01T11:12:14;22.00;;;13.00;;
77191;SDS011;66172;48.526;8.078;2023-03-01T11:14:48;20.48;;;12.73;;
77191;SDS011;66172;48.526;8.078;2023-03-01T11:17:26;21.13;;;13.03;;
77191;SDS011;66172;48.526;8.078;2023-03-01T11:22:32;21.83;;;13.38;;
77191;SDS011;66172;48.526;8.078;2023-03-01T11:25:00;21.50;;;13.57;;
77191;SDS011;66172;48.526;8.078;2023-03-01T11:27:29;23.63;;;13.43;;
77191;SDS011;66172;48.526;8.078;2023-03-01T11:33:01;21.30;;;12.68;;
77191;SDS011;66172;48.526;8.078;2023-03-01T11:35:34;20.58;;;13.40;;
77191;SDS011;66172;48.526;8.078;2023-03-01T11:38:26;20.33;;;11.90;;
77191;SDS011;66172;48.526;8.078;2023-03-01T11:40:54;23.35;;;13.35;;
77191;SDS011;66172;48.526;8.078;2023-03-01T12:03:23;20.88;;;13.35;;
77191;SDS011;66172;48.526;8.078;2023-03-01T12:09:13;20.77;;;12.75;;
77191;SDS011;66172;48.526;8.078;2023-03-01T12:14:53;20.50;;;12.88;;
77191;SDS011;66172;48.526;8.078;2023-03-01T12:17:43;20.98;;;12.90;;
77191;SDS011;66172;48.526;8.078;2023-03-01T12:23:32;22.45;;;13.57;;
77191;SDS011;66172;48.526;8.078;2023-03-01T12:28:56;22.15;;;12.55;;
77191;SDS011;66172;48.526;8.078;2023-03-01T12:37:52;21.88;;;13.35;;
77191;SDS011;66172;48.526;8.078;2023-03-01T12:51:32;24.00;;;12.98;;
77191;SDS011;66172;48.526;8.078;2023-03-01T12:54:26;24.87;;;12.90;;
77191;SDS011;66172;48.526;8.078;2023-03-01T12:56:56;24.92;;;12.80;;
77191;SDS011;66172;48.526;8.078;2023-03-01T12:59:30;25.10;;;13.10;;
77191;SDS011;66172;48.526;8.078;2023-03-01T13:04:52;23.92;;;12.80;;
77191;SDS011;66172;48.526;8.078;2023-03-01T13:10:29;23.88;;;12.32;;
77191;SDS011;66172;48.526;8.078;2023-03-01T13:13:01;23.70;;;12.02;;
77191;SDS011;66172;48.526;8.078;2023-03-01T13:15:34;23.08;;;12.48;;
77191;SDS011;66172;48.526;8.078;2023-03-01T13:23:12;24.60;;;12.65;;
77191;SDS011;66172;48.526;8.078;2023-03-01T13:26:00;24.35;;;12.70;;
77191;SDS011;66172;48.526;8.078;2023-03-01T13:33:46;25.23;;;12.27;;
77191;SDS011;66172;48.526;8.078;2023-03-01T13:49:49;24.70;;;11.57;;
77191;SDS011;66172;48.526;8.078;2023-03-01T13:58:13;25.83;;;12.50;;
77191;SDS011;66172;48.526;8.078;2023-03-01T14:00:40;23.80;;;12.27;;
77191;SDS011;66172;48.526;8.078;2023-03-01T14:03:10;25.30;;;12.63;;
77191;SDS011;66172;48.526;8.078;2023-03-01T14:05:42;23.88;;;11.75;;
77191;SDS011;66172;48.526;8.078;2023-03-01T14:08:23;24.85;;;12.48;;
77191;SDS011;66172;48.526;8.078;2023-03-01T14:10:54;24.73;;;12.03;;
77191;SDS011;66172;48.526;8.078;2023-03-01T14:13:25;26.13;;;13.00;;
77191;SDS011;66172;48.526;8.078;2023-03-01T14:16:08;24.52;;;12.50;;
77191;SDS011;66172;48.526;8.078;2023-03-01T14:21:38;24.42;;;12.02;;
77191;SDS011;66172;48.526;8.078;2023-03-01T14:24:04;25.17;;;12.40;;
77191;SDS011;66172;48.526;8.078;2023-03-01T14:26:30;26.02;;;11.75;;
77191;SDS011;66172;48.526;8.078;2023-03-01T14:28:59;25.45;;;12.13;;
77191;SDS011;66172;48.526;8.078;2023-03-01T14:34:04;21.97;;;11.13;;
77191;SDS011;66172;48.526;8.078;2023-03-01T14:36:31;23.45;;;11.98;;
77191;SDS011;66172;48.526;8.078;2023-03-01T14:38:59;26.10;;;12.23;;
77191;SDS011;66172;48.526;8.078;2023-03-01T14:41:34;23.98;;;11.25;;
77191;SDS011;66172;48.526;8.078;2023-03-01T14:44:02;24.00;;;11.65;;
77191;SDS011;66172;48.526;8.078;2023-03-01T14:46:34;25.00;;;11.90;;
77191;SDS011;66172;48.526;8.078;2023-03-01T14:49:19;25.25;;;12.55;;
77191;SDS011;66172;48.526;8.078;2023-03-01T14:51:53;26.98;;;13.23;;
77191;SDS011;66172;48.526;8.078;2023-03-01T14:56:59;25.63;;;12.65;;
77191;SDS011;66172;48.526;8.078;2023-03-01T14:59:26;25.03;;;12.47;;
77191;SDS011;66172;48.526;8.078;2023-03-01T15:01:53;23.20;;;11.68;;
77191;SDS011;66172;48.526;8.078;2023-03-01T15:04:22;24.27;;;11.82;;
77191;SDS011;66172;48.526;8.078;2023-03-01T15:06:51;25.45;;;12.60;;
77191;SDS011;66172;48.526;8.078;2023-03-01T15:09:19;23.73;;;11.97;;
77191;SDS011;66172;48.526;8.078;2023-03-01T15:11:46;24.55;;;12.40;;
77191;SDS011;66172;48.526;8.078;2023-03-01T15:17:20;25.52;;;12.27;;
77191;SDS011;66172;48.526;8.078;2023-03-01T15:20:00;21.27;;;11.93;;
77191;SDS011;66172;48.526;8.078;2023-03-01T15:22:29;25.60;;;12.43;;
77191;SDS011;66172;48.526;8.078;2023-03-01T15:24:55;25.20;;;11.85;;
77191;SDS011;66172;48.526;8.078;2023-03-01T15:27:22;26.25;;;12.63;;
77191;SDS011;66172;48.526;8.078;2023-03-01T15:29:52;25.98;;;11.52;;
77191;SDS011;66172;48.526;8.078;2023-03-01T15:32:28;23.75;;;11.50;;
77191;SDS011;66172;48.526;8.078;2023-03-01T15:34:56;29.17;;;13.00;;
77191;SDS011;66172;48.526;8.078;2023-03-01T15:42:50;24.75;;;12.10;;
77191;SDS011;66172;48.526;8.078;2023-03-01T15:47:48;40.97;;;16.70;;
77191;SDS011;66172;48.526;8.078;2023-03-01T15:50:29;28.02;;;12.80;;
77191;SDS011;66172;48.526;8.078;2023-03-01T15:53:00;24.83;;;11.88;;
77191;SDS011;66172;48.526;8.078;2023-03-01T15:55:32;19.58;;;9.73;;
77191;SDS011;66172;48.526;8.078;2023-03-01T15:58:17;20.40;;;10.38;;
77191;SDS011;66172;48.526;8.078;2023-03-01T16:00:46;20.10;;;10.37;;
77191;SDS011;66172;48.526;8.078;2023-03-01T16:03:14;20.30;;;10.00;;
77191;SDS011;66172;48.526;8.078;2023-03-01T16:05:42;22.45;;;10.32;;
77191;SDS011;66172;48.526;8.078;2023-03-01T16:08:08;23.15;;;8.60;;
77191;SDS011;66172;48.526;8.078;2023-03-01T16:10:34;17.95;;;9.13;;
77191;SDS011;66172;48.526;8.078;2023-03-01T16:13:07;21.00;;;9.60;;
77191;SDS011;66172;48.526;8.078;2023-03-01T16:15:33;21.13;;;10.32;;
77191;SDS011;66172;48.526;8.078;2023-03-01T16:18:01;24.20;;;11.55;;
77191;SDS011;66172;48.526;8.078;2023-03-01T16:20:28;24.38;;;12.13;;
77191;SDS011;66172;48.526;8.078;2023-03-01T16:22:57;25.88;;;12.30;;
77191;SDS011;66172;48.526;8.078;2023-03-01T16:25:25;30.47;;;14.40;;
77191;SDS011;66172;48.526;8.078;2023-03-01T16:27:51;30.30;;;12.20;;
77191;SDS011;66172;48.526;8.078;2023-03-01T16:30:18;26.20;;;11.75;;
77191;SDS011;66172;48.526;8.078;2023-03-01T16:32:46;22.42;;;10.98;;
77191;SDS011;66172;48.526;8.078;2023-03-01T16:35:13;23.48;;;10.80;;
77191;SDS011;66172;48.526;8.078;2023-03-01T16:37:40;22.23;;;11.57;;
77191;SDS011;66172;48.526;8.078;2023-03-01T16:40:14;25.10;;;11.52;;
77191;SDS011;66172;48.526;8.078;2023-03-01T16:42:43;24.63;;;11.00;;
77191;SDS011;66172;48.526;8.078;2023-03-01T16:45:09;21.75;;;10.73;;
77191;SDS011;66172;48.526;8.078;2023-03-01T16:47:37;20.73;;;10.73;;
77191;SDS011;66172;48.526;8.078;2023-03-01T16:50:03;22.63;;;10.18;;